sensor_id;sensor_type;location;lat;lon;timestamp;pressure;altitude;pressure_sealevel;temperature;humidity
53316;BME280;39204;53.896;11.432;2023-05-10T05:15:38;100801.78;;;15.51;91.72
53316;BME280;39204;53.896;11.432;2023-05-10T05:17:08;100796.63;;;15.54;91.90
53316;BME280;39204;53.896;11.432;2023-05-10T05:18:39;100798.09;;;15.26;91.41
53316;BME280;39204;53.896;11.432;2023-05-10T05:20:10;100807.19;;;15.51;91.07
53316;BME280;39204;53.896;11.432;2023-05-10T05:21:40;100800.91;;;14.80;93.28
53316;BME280;39204;53.896;11.432;2023-05-10T05:23:11;100799.00;;;14.45;93.33
53316;BME280;39204;53.896;11.432;2023-05-10T05:24:41;100800.31;;;15.04;92.89
53316;BME280;39204;53.896;11.432;2023-05-10T05:26:11;100803.28;;;14.97;93.21
53316;BME280;39204;53.896;11.432;2023-05-10T05:27:42;100807.88;;;14.96;92.36
53316;BME280;39204;53.896;11.432;2023-05-10T05:29:12;100802.16;;;15.18;91.19
53316;BME280;39204;53.896;11.432;2023-05-10T05:30:42;100812.38;;;15.37;92.09
53316;BME280;39204;53.896;11.432;2023-05-10T05:32:12;100805.81;;;15.53;90.75
53316;BME280;39204;53.896;11.432;2023-05-10T05:33:43;100808.84;;;16.01;89.88
53316;BME280;39204;53.896;11.432;2023-05-10T05:35:13;100811.22;;;15.58;91.11
53316;BME280;39204;53.896;11.432;2023-05-10T05:36:43;100805.09;;;15.27;92.04
53316;BME280;39204;53.896;11.432;2023-05-10T05:38:14;100801.25;;;16.03;89.91
53316;BME280;39204;53.896;11.432;2023-05-10T05:39:45;100809.88;;;15.51;89.36
53316;BME280;39204;53.896;11.432;2023-05-10T05:41:15;100798.19;;;16.15;91.33
53316;BME280;39204;53.896;11.432;2023-05-10T05:42:45;100809.72;;;16.31;89.34
53316;BME280;39204;53.896;11.432;2023-05-10T05:44:16;100805.41;;;16.30;86.66
53316;BME280;39204;53.896;11.432;2023-05-10T05:45:46;100806.44;;;16.34;86.70
53316;BME280;39204;53.896;11.432;2023-05-10T05:47:16;100810.44;;;16.07;88.34
53316;BME280;39204;53.896;11.432;2023-05-10T05:48:47;100812.88;;;16.04;87.19
53316;BME280;39204;53.896;11.432;2023-05-10T05:50:17;100805.88;;;15.97;88.20
53316;BME280;39204;53.896;11.432;2023-05-10T05:51:48;100793.84;;;16.19;88.02
53316;BME280;39204;53.896;11.432;2023-05-10T05:53:20;100800.84;;;16.20;88.55
53316;BME280;39204;53.896;11.432;2023-05-10T05:54:50;100796.84;;;16.12;87.38
53316;BME280;39204;53.896;11.432;2023-05-10T05:56:20;100798.19;;;16.49;88.13
53316;BME280;39204;53.896;11.432;2023-05-10T05:57:54;100803.25;;;16.61;86.06
53316;BME280;39204;53.896;11.432;2023-05-10T05:59:24;100804.41;;;16.55;84.89
53316;BME280;39204;53.896;11.432;2023-05-10T06:00:54;100807.66;;;16.86;84.17
53316;BME280;39204;53.896;11.432;2023-05-10T06:02:25;100792.16;;;16.57;85.39
53316;BME280;39204;53.896;11.432;2023-05-10T06:03:55;100803.91;;;16.13;84.80
53316;BME280;39204;53.896;11.432;2023-05-10T06:05:25;100801.38;;;16.61;84.57
53316;BME280;39204;53.896;11.432;2023-05-10T06:06:55;100792.72;;;16.59;84.89
53316;BME280;39204;53.896;11.432;2023-05-10T06:08:26;100802.91;;;16.67;84.45
53316;BME280;39204;53.896;11.432;2023-05-10T06:09:56;100790.09;;;16.15;85.07
53316;BME280;39204;53.896;11.432;2023-05-10T06:11:26;100795.16;;;16.56;84.45
53316;BME280;39204;53.896;11.432;2023-05-10T06:12:57;100795.31;;;16.75;83.93
53316;BME280;39204;53.896;11.432;2023-05-10T06:14:27;100803.25;;;17.43;82.60
53316;BME280;39204;53.896;11.432;2023-05-10T06:15:58;100799.19;;;17.40;82.98
53316;BME280;39204;53.896;11.432;2023-05-10T06:17:28;100799.06;;;16.79;81.99
53316;BME280;39204;53.896;11.432;2023-05-10T06:18:59;100799.59;;;16.81;82.97
53316;BME280;39204;53.896;11.432;2023-05-10T06:20:29;100798.97;;;16.55;84.22
53316;BME280;39204;53.896;11.432;2023-05-10T06:22:01;100795.09;;;16.66;82.50
53316;BME280;39204;53.896;11.432;2023-05-10T06:23:31;100801.38;;;16.90;83.03
53316;BME280;39204;53.896;11.432;2023-05-10T06:25:02;100796.88;;;16.81;83.09
53316;BME280;39204;53.896;11.432;2023-05-10T06:26:33;100793.38;;;16.80;83.03
53316;BME280;39204;53.896;11.432;2023-05-10T06:28:03;100799.72;;;17.18;82.41
53316;BME280;39204;53.896;11.432;2023-05-10T06:29:33;100790.00;;;17.17;83.85
53316;BME280;39204;53.896;11.432;2023-05-10T06:31:04;100793.28;;;17.57;81.91
53316;BME280;39204;53.896;11.432;2023-05-10T06:32:35;100793.31;;;17.33;81.26
53316;BME280;39204;53.896;11.432;2023-05-10T06:34:05;100790.34;;;16.82;82.61
53316;BME280;39204;53.896;11.432;2023-05-10T06:35:37;100786.75;;;16.91;83.15
53316;BME280;39204;53.896;11.432;2023-05-10T06:37:08;100794.44;;;17.32;82.82
53316;BME280;39204;53.896;11.432;2023-05-10T06:38:39;100784.56;;;17.17;81.12
53316;BME280;39204;53.896;11.432;2023-05-10T06:40:09;100778.50;;;17.26;81.09
53316;BME280;39204;53.896;11.432;2023-05-10T06:41:40;100787.50;;;16.97;80.84
53316;BME280;39204;53.896;11.432;2023-05-10T06:43:10;100781.00;;;17.22;81.61
53316;BME280;39204;53.896;11.432;2023-05-10T06:44:40;100787.31;;;17.12;81.55
53316;BME280;39204;53.896;11.432;2023-05-10T06:46:11;100778.22;;;17.03;81.07
53316;BME280;39204;53.896;11.432;2023-05-10T06:47:42;100782.41;;;16.90;81.15
53316;BME280;39204;53.896;11.432;2023-05-10T06:49:12;100779.06;;;16.75;81.51
53316;BME280;39204;53.896;11.432;2023-05-10T06:50:42;100783.22;;;16.62;82.23
53316;BME280;39204;53.896;11.432;2023-05-10T06:52:12;100785.66;;;17.16;80.29
53316;BME280;39204;53.896;11.432;2023-05-10T06:53:43;100782.72;;;17.37;80.60
53316;BME280;39204;53.896;11.432;2023-05-10T06:55:13;100788.50;;;17.49;79.91
53316;BME280;39204;53.896;11.432;2023-05-10T06:56:43;100781.97;;;17.93;78.96
53316;BME280;39204;53.896;11.432;2023-05-10T06:58:14;100781.44;;;17.72;80.00
53316;BME280;39204;53.896;11.432;2023-05-10T06:59:44;100786.13;;;18.23;78.84
53316;BME280;39204;53.896;11.432;2023-05-10T07:01:14;100775.88;;;18.20;79.10
53316;BME280;39204;53.896;11.432;2023-05-10T07:02:45;100789.81;;;17.76;78.69
53316;BME280;39204;53.896;11.432;2023-05-10T07:04:15;100779.84;;;17.90;79.11
53316;BME280;39204;53.896;11.432;2023-05-10T07:05:45;100780.50;;;18.01;77.05
53316;BME280;39204;53.896;11.432;2023-05-10T07:07:15;100778.78;;;18.24;78.15
53316;BME280;39204;53.896;11.432;2023-05-10T07:08:46;100779.09;;;18.22;77.67
53316;BME280;39204;53.896;11.432;2023-05-10T07:10:16;100782.63;;;18.23;77.97
53316;BME280;39204;53.896;11.432;2023-05-10T07:11:46;100771.88;;;18.31;78.09
53316;BME280;39204;53.896;11.432;2023-05-10T07:13:16;100790.81;;;18.36;76.29
53316;BME280;39204;53.896;11.432;2023-05-10T07:14:47;100769.41;;;18.16;76.88
53316;BME280;39204;53.896;11.432;2023-05-10T07:16:17;100765.44;;;18.27;77.58
53316;BME280;39204;53.896;11.432;2023-05-10T07:17:47;100762.34;;;18.67;76.58
53316;BME280;39204;53.896;11.432;2023-05-10T07:19:17;100764.53;;;19.25;75.25
53316;BME280;39204;53.896;11.432;2023-05-10T07:20:48;100767.91;;;19.17;75.42
53316;BME280;39204;53.896;11.432;2023-05-10T07:22:18;100764.13;;;19.18;73.66
53316;BME280;39204;53.896;11.432;2023-05-10T07:23:49;100773.09;;;18.25;72.76
53316;BME280;39204;53.896;11.432;2023-05-10T07:25:19;100766.25;;;17.71;73.97
53316;BME280;39204;53.896;11.432;2023-05-10T07:26:50;100768.13;;;18.13;76.07
53316;BME280;39204;53.896;11.432;2023-05-10T07:28:20;100769.63;;;18.85;75.19
53316;BME280;39204;53.896;11.432;2023-05-10T07:29:50;100779.91;;;18.23;73.37
53316;BME280;39204;53.896;11.432;2023-05-10T07:31:20;100776.28;;;18.27;73.17
53316;BME280;39204;53.896;11.432;2023-05-10T07:32:51;100772.78;;;18.27;75.22
53316;BME280;39204;53.896;11.432;2023-05-10T07:34:21;100774.84;;;18.16;75.36
53316;BME280;39204;53.896;11.432;2023-05-10T07:35:51;100763.13;;;18.67;74.74
53316;BME280;39204;53.896;11.432;2023-05-10T07:37:22;100769.06;;;18.55;73.36
53316;BME280;39204;53.896;11.432;2023-05-10T07:38:52;100766.66;;;18.35;73.25
53316;BME280;39204;53.896;11.432;2023-05-10T07:40:22;100771.34;;;18.95;73.78
53316;BME280;39204;53.896;11.432;2023-05-10T07:41:53;100773.34;;;18.75;72.61
53316;BME280;39204;53.896;11.432;2023-05-10T07:43:23;100768.41;;;18.77;71.96
53316;BME280;39204;53.896;11.432;2023-05-10T07:44:54;100769.72;;;18.94;73.32
53316;BME280;39204;53.896;11.432;2023-05-10T07:46:25;100775.31;;;18.70;72.78
53316;BME280;39204;53.896;11.432;2023-05-10T07:47:55;100775.00;;;19.18;72.83
53316;BME280;39204;53.896;11.432;2023-05-10T07:49:25;100769.53;;;18.76;72.25
53316;BME280;39204;53.896;11.432;2023-05-10T07:50:55;100771.34;;;18.95;71.27
53316;BME280;39204;53.896;11.432;2023-05-10T07:52:26;100777.06;;;18.79;70.66
53316;BME280;39204;53.896;11.432;2023-05-10T07:53:56;100775.31;;;18.70;70.72
53316;BME280;39204;53.896;11.432;2023-05-10T07:55:28;100778.41;;;18.96;72.05
53316;BME280;39204;53.896;11.432;2023-05-10T07:56:58;100781.19;;;19.73;72.77
53316;BME280;39204;53.896;11.432;2023-05-10T07:58:29;100783.47;;;19.80;69.28
53316;BME280;39204;53.896;11.432;2023-05-10T08:00:00;100777.16;;;19.71;70.59
53316;BME280;39204;53.896;11.432;2023-05-10T08:01:31;100770.03;;;19.97;71.53
53316;BME280;39204;53.896;11.432;2023-05-10T08:03:02;100775.25;;;20.30;67.58
53316;BME280;39204;53.896;11.432;2023-05-10T08:04:32;100769.09;;;20.47;68.54
53316;BME280;39204;53.896;11.432;2023-05-10T08:06:03;100772.91;;;19.78;67.76
53316;BME280;39204;53.896;11.432;2023-05-10T08:07:33;100775.47;;;19.97;69.05
53316;BME280;39204;53.896;11.432;2023-05-10T08:09:03;100772.88;;;19.92;69.04
53316;BME280;39204;53.896;11.432;2023-05-10T08:10:34;100769.78;;;20.52;69.13
53316;BME280;39204;53.896;11.432;2023-05-10T08:12:04;100778.59;;;19.54;68.31
53316;BME280;39204;53.896;11.432;2023-05-10T08:13:35;100772.25;;;19.31;68.94
53316;BME280;39204;53.896;11.432;2023-05-10T08:15:08;100772.50;;;19.57;68.37
53316;BME280;39204;53.896;11.432;2023-05-10T08:16:39;100786.94;;;19.58;68.67
53316;BME280;39204;53.896;11.432;2023-05-10T08:18:09;100774.69;;;19.33;67.92
53316;BME280;39204;53.896;11.432;2023-05-10T08:19:39;100775.56;;;19.01;70.19
53316;BME280;39204;53.896;11.432;2023-05-10T08:21:10;100772.13;;;19.50;70.67
53316;BME280;39204;53.896;11.432;2023-05-10T08:22:41;100777.16;;;19.71;69.70
53316;BME280;39204;53.896;11.432;2023-05-10T08:24:11;100777.47;;;19.42;70.11
53316;BME280;39204;53.896;11.432;2023-05-10T08:25:41;100785.50;;;19.74;70.51
53316;BME280;39204;53.896;11.432;2023-05-10T08:27:12;100777.09;;;19.62;69.28
53316;BME280;39204;53.896;11.432;2023-05-10T08:28:42;100778.91;;;19.25;69.42
53316;BME280;39204;53.896;11.432;2023-05-10T08:30:13;100783.31;;;19.49;70.81
53316;BME280;39204;53.896;11.432;2023-05-10T08:31:43;100776.06;;;19.58;70.08
53316;BME280;39204;53.896;11.432;2023-05-10T08:33:13;100779.66;;;19.53;70.21
53316;BME280;39204;53.896;11.432;2023-05-10T08:34:43;100776.69;;;19.41;70.55
53316;BME280;39204;53.896;11.432;2023-05-10T08:36:14;100767.84;;;19.22;71.00
53316;BME280;39204;53.896;11.432;2023-05-10T08:37:50;100771.97;;;19.19;70.73
53316;BME280;39204;53.896;11.432;2023-05-10T08:39:20;100774.78;;;19.00;70.97
53316;BME280;39204;53.896;11.432;2023-05-10T08:40:53;100769.53;;;19.04;71.17
53316;BME280;39204;53.896;11.432;2023-05-10T08:42:28;100771.66;;;18.93;73.05
53316;BME280;39204;53.896;11.432;2023-05-10T08:44:03;100775.88;;;19.27;73.10
53316;BME280;39204;53.896;11.432;2023-05-10T08:45:39;100787.47;;;19.32;72.87
53316;BME280;39204;53.896;11.432;2023-05-10T08:47:11;100772.94;;;19.51;72.99
53316;BME280;39204;53.896;11.432;2023-05-10T08:48:42;100774.44;;;19.57;71.94
53316;BME280;39204;53.896;11.432;2023-05-10T08:50:14;100781.00;;;19.56;74.39
53316;BME280;39204;53.896;11.432;2023-05-10T08:51:50;100780.03;;;19.88;72.74
53316;BME280;39204;53.896;11.432;2023-05-10T08:53:24;100778.59;;;19.54;71.13
53316;BME280;39204;53.896;11.432;2023-05-10T08:54:56;100783.22;;;19.40;71.17
53316;BME280;39204;53.896;11.432;2023-05-10T08:56:26;100776.78;;;19.64;73.16
53316;BME280;39204;53.896;11.432;2023-05-10T08:57:57;100772.44;;;19.99;73.47
53316;BME280;39204;53.896;11.432;2023-05-10T08:59:28;100777.47;;;19.55;72.43
53316;BME280;39204;53.896;11.432;2023-05-10T09:00:59;100780.53;;;19.90;73.13
53316;BME280;39204;53.896;11.432;2023-05-10T09:02:29;100780.47;;;19.81;71.87
53316;BME280;39204;53.896;11.432;2023-05-10T09:04:00;100779.88;;;19.71;73.00
53316;BME280;39204;53.896;11.432;2023-05-10T09:05:30;100787.44;;;19.74;72.83
53316;BME280;39204;53.896;11.432;2023-05-10T09:07:01;100790.22;;;19.82;72.08
53316;BME280;39204;53.896;11.432;2023-05-10T09:08:31;100796.50;;;20.05;71.92
53316;BME280;39204;53.896;11.432;2023-05-10T09:10:02;100791.00;;;19.97;72.53
53316;BME280;39204;53.896;11.432;2023-05-10T09:11:33;100794.09;;;19.68;72.80
53316;BME280;39204;53.896;11.432;2023-05-10T09:13:03;100801.91;;;19.83;71.70
53316;BME280;39204;53.896;11.432;2023-05-10T09:14:35;100793.16;;;19.72;73.37
53316;BME280;39204;53.896;11.432;2023-05-10T09:16:05;100794.34;;;20.16;73.41
53316;BME280;39204;53.896;11.432;2023-05-10T09:17:37;100802.22;;;19.81;71.48
53316;BME280;39204;53.896;11.432;2023-05-10T09:19:08;100789.66;;;20.08;72.00
53316;BME280;39204;53.896;11.432;2023-05-10T09:20:38;100800.16;;;20.01;71.02
53316;BME280;39204;53.896;11.432;2023-05-10T09:22:09;100792.97;;;20.05;71.26
53316;BME280;39204;53.896;11.432;2023-05-10T09:23:43;100797.16;;;20.02;70.78
53316;BME280;39204;53.896;11.432;2023-05-10T09:25:15;100798.38;;;19.96;70.21
53316;BME280;39204;53.896;11.432;2023-05-10T09:26:46;100801.44;;;20.17;70.98
53316;BME280;39204;53.896;11.432;2023-05-10T09:28:20;100797.34;;;20.06;70.46
53316;BME280;39204;53.896;11.432;2023-05-10T09:29:50;100802.13;;;20.09;70.26
53316;BME280;39204;53.896;11.432;2023-05-10T09:31:24;100802.28;;;20.26;69.81
53316;BME280;39204;53.896;11.432;2023-05-10T09:32:57;100796.69;;;20.09;69.60
53316;BME280;39204;53.896;11.432;2023-05-10T09:34:29;100801.34;;;20.31;70.80
53316;BME280;39204;53.896;11.432;2023-05-10T09:36:06;100797.88;;;20.39;69.38
53316;BME280;39204;53.896;11.432;2023-05-10T09:37:44;100806.22;;;20.20;70.03
53316;BME280;39204;53.896;11.432;2023-05-10T09:39:15;100805.41;;;19.97;70.99
53316;BME280;39204;53.896;11.432;2023-05-10T09:40:52;100800.78;;;20.20;70.49
53316;BME280;39204;53.896;11.432;2023-05-10T09:42:24;100806.72;;;20.59;70.64
53316;BME280;39204;53.896;11.432;2023-05-10T09:43:57;100798.22;;;20.60;70.65
53316;BME280;39204;53.896;11.432;2023-05-10T09:45:29;100796.31;;;20.24;69.26
53316;BME280;39204;53.896;11.432;2023-05-10T09:47:01;100794.84;;;20.41;70.60
53316;BME280;39204;53.896;11.432;2023-05-10T09:48:32;100802.06;;;20.59;69.63
53316;BME280;39204;53.896;11.432;2023-05-10T09:50:03;100807.97;;;20.39;67.93
53316;BME280;39204;53.896;11.432;2023-05-10T09:51:34;100807.94;;;20.84;67.51
53316;BME280;39204;53.896;11.432;2023-05-10T09:53:05;100793.88;;;20.14;67.74
53316;BME280;39204;53.896;11.432;2023-05-10T09:54:35;100803.81;;;20.41;70.54
53316;BME280;39204;53.896;11.432;2023-05-10T09:56:06;100800.47;;;20.58;69.73
53316;BME280;39204;53.896;11.432;2023-05-10T09:57:36;100801.78;;;20.47;69.46
53316;BME280;39204;53.896;11.432;2023-05-10T09:59:11;100797.63;;;20.27;69.23
53316;BME280;39204;53.896;11.432;2023-05-10T10:00:43;100793.31;;;20.48;69.94
53316;BME280;39204;53.896;11.432;2023-05-10T10:02:14;100793.91;;;20.45;71.67
53316;BME280;39204;53.896;11.432;2023-05-10T10:03:45;100785.28;;;20.66;68.57
53316;BME280;39204;53.896;11.432;2023-05-10T10:05:15;100798.84;;;20.88;69.68
53316;BME280;39204;53.896;11.432;2023-05-10T10:06:46;100795.47;;;20.60;68.17
53316;BME280;39204;53.896;11.432;2023-05-10T10:08:19;100801.91;;;20.64;70.58
53316;BME280;39204;53.896;11.432;2023-05-10T10:09:50;100796.34;;;20.69;69.50
53316;BME280;39204;53.896;11.432;2023-05-10T10:11:21;100797.66;;;20.49;67.61
53316;BME280;39204;53.896;11.432;2023-05-10T10:12:52;100793.44;;;20.43;69.48
53316;BME280;39204;53.896;11.432;2023-05-10T10:14:23;100801.63;;;20.66;70.48
53316;BME280;39204;53.896;11.432;2023-05-10T10:15:54;100805.22;;;20.84;72.96
53316;BME280;39204;53.896;11.432;2023-05-10T10:17:26;100802.03;;;20.82;69.34
53316;BME280;39204;53.896;11.432;2023-05-10T10:18:58;100808.22;;;20.73;70.04
53316;BME280;39204;53.896;11.432;2023-05-10T10:20:28;100800.97;;;20.91;70.48
53316;BME280;39204;53.896;11.432;2023-05-10T10:22:00;100801.81;;;21.09;68.87
53316;BME280;39204;53.896;11.432;2023-05-10T10:23:30;100797.03;;;20.84;68.92
53316;BME280;39204;53.896;11.432;2023-05-10T10:25:00;100794.75;;;21.08;69.45
53316;BME280;39204;53.896;11.432;2023-05-10T10:26:33;100805.34;;;21.41;67.79
53316;BME280;39204;53.896;11.432;2023-05-10T10:28:22;100804.06;;;21.47;68.51
53316;BME280;39204;53.896;11.432;2023-05-10T10:30:16;100797.34;;;20.73;68.66
53316;BME280;39204;53.896;11.432;2023-05-10T10:32:06;100803.00;;;20.86;68.91
53316;BME280;39204;53.896;11.432;2023-05-10T10:33:51;100793.69;;;20.87;69.18
53316;BME280;39204;53.896;11.432;2023-05-10T10:35:25;100798.72;;;21.33;68.29
53316;BME280;39204;53.896;11.432;2023-05-10T10:36:56;100804.47;;;20.92;68.03
53316;BME280;39204;53.896;11.432;2023-05-10T10:38:57;100805.81;;;20.72;70.79
53316;BME280;39204;53.896;11.432;2023-05-10T10:40:31;100801.25;;;20.59;68.77
53316;BME280;39204;53.896;11.432;2023-05-10T10:42:01;100803.81;;;20.86;69.52
53316;BME280;39204;53.896;11.432;2023-05-10T10:43:33;100792.34;;;21.07;69.01
53316;BME280;39204;53.896;11.432;2023-05-10T10:45:12;100795.84;;;21.38;70.25
53316;BME280;39204;53.896;11.432;2023-05-10T10:47:01;100796.66;;;20.99;68.39
53316;BME280;39204;53.896;11.432;2023-05-10T10:48:32;100796.34;;;21.00;71.62
53316;BME280;39204;53.896;11.432;2023-05-10T10:50:04;100793.00;;;21.12;69.59
53316;BME280;39204;53.896;11.432;2023-05-10T10:51:39;100809.63;;;21.02;70.80
53316;BME280;39204;53.896;11.432;2023-05-10T10:53:10;100795.19;;;20.93;69.81
53316;BME280;39204;53.896;11.432;2023-05-10T10:54:41;100794.50;;;21.27;69.62
53316;BME280;39204;53.896;11.432;2023-05-10T10:56:12;100798.53;;;21.30;68.58
53316;BME280;39204;53.896;11.432;2023-05-10T10:57:47;100797.94;;;21.50;69.04
53316;BME280;39204;53.896;11.432;2023-05-10T10:59:26;100796.53;;;21.13;68.79
53316;BME280;39204;53.896;11.432;2023-05-10T11:01:17;100808.06;;;21.49;68.49
53316;BME280;39204;53.896;11.432;2023-05-10T11:04:27;100800.22;;;21.65;67.88
53316;BME280;39204;53.896;11.432;2023-05-10T11:05:58;100791.75;;;21.67;67.96
53316;BME280;39204;53.896;11.432;2023-05-10T11:07:28;100797.53;;;21.83;67.89
53316;BME280;39204;53.896;11.432;2023-05-10T11:08:59;100808.31;;;21.96;66.98
53316;BME280;39204;53.896;11.432;2023-05-10T11:10:35;100794.34;;;21.81;66.15
53316;BME280;39204;53.896;11.432;2023-05-10T11:12:08;100803.31;;;21.90;66.74
53316;BME280;39204;53.896;11.432;2023-05-10T11:15:10;100804.91;;;21.73;66.94
53316;BME280;39204;53.896;11.432;2023-05-10T11:16:42;100798.03;;;21.27;67.24
53316;BME280;39204;53.896;11.432;2023-05-10T11:18:18;100798.56;;;21.38;67.99
53316;BME280;39204;53.896;11.432;2023-05-10T11:20:13;100803.47;;;21.27;67.13
53316;BME280;39204;53.896;11.432;2023-05-10T11:21:49;100800.00;;;21.36;68.12
53316;BME280;39204;53.896;11.432;2023-05-10T11:23:19;100798.31;;;21.66;69.08
53316;BME280;39204;53.896;11.432;2023-05-10T11:24:57;100798.97;;;21.71;67.75
53316;BME280;39204;53.896;11.432;2023-05-10T11:26:33;100797.38;;;21.79;66.69
53316;BME280;39204;53.896;11.432;2023-05-10T11:28:04;100797.84;;;21.90;67.12
53316;BME280;39204;53.896;11.432;2023-05-10T11:29:34;100795.28;;;21.93;68.11
53316;BME280;39204;53.896;11.432;2023-05-10T11:31:05;100799.16;;;22.01;67.26
53316;BME280;39204;53.896;11.432;2023-05-10T11:32:37;100795.28;;;21.85;66.95
53316;BME280;39204;53.896;11.432;2023-05-10T11:34:08;100800.09;;;21.70;67.35
53316;BME280;39204;53.896;11.432;2023-05-10T11:35:39;100802.97;;;21.65;66.99
53316;BME280;39204;53.896;11.432;2023-05-10T11:37:10;100787.56;;;21.69;68.70
53316;BME280;39204;53.896;11.432;2023-05-10T11:38:40;100795.75;;;21.69;67.66
53316;BME280;39204;53.896;11.432;2023-05-10T11:40:11;100788.81;;;21.46;69.12
53316;BME280;39204;53.896;11.432;2023-05-10T11:41:41;100797.66;;;21.60;68.53
53316;BME280;39204;53.896;11.432;2023-05-10T11:43:11;100796.56;;;21.70;68.48
53316;BME280;39204;53.896;11.432;2023-05-10T11:44:42;100793.34;;;21.77;68.10
53316;BME280;39204;53.896;11.432;2023-05-10T11:46:14;100802.06;;;22.22;69.19
53316;BME280;39204;53.896;11.432;2023-05-10T11:47:48;100802.19;;;21.91;66.82
53316;BME280;39204;53.896;11.432;2023-05-10T11:49:20;100796.22;;;21.80;68.62
53316;BME280;39204;53.896;11.432;2023-05-10T11:50:53;100800.91;;;21.80;69.41
53316;BME280;39204;53.896;11.432;2023-05-10T11:52:26;100798.66;;;21.82;69.22
53316;BME280;39204;53.896;11.432;2023-05-10T11:53:57;100797.53;;;21.91;69.72
53316;BME280;39204;53.896;11.432;2023-05-10T11:55:27;100806.69;;;22.04;69.07
53316;BME280;39204;53.896;11.432;2023-05-10T11:57:00;100806.53;;;22.35;68.79
53316;BME280;39204;53.896;11.432;2023-05-10T11:58:31;100809.63;;;22.25;69.56
53316;BME280;39204;53.896;11.432;2023-05-10T12:00:01;100808.31;;;21.96;67.87
53316;BME280;39204;53.896;11.432;2023-05-10T12:01:34;100812.47;;;21.85;70.58
53316;BME280;39204;53.896;11.432;2023-05-10T12:03:04;100809.91;;;21.97;70.99
53316;BME280;39204;53.896;11.432;2023-05-10T12:04:35;100813.44;;;21.98;70.10
53316;BME280;39204;53.896;11.432;2023-05-10T12:06:06;100827.13;;;22.41;69.10
53316;BME280;39204;53.896;11.432;2023-05-10T12:07:37;100812.66;;;22.41;69.17
53316;BME280;39204;53.896;11.432;2023-05-10T12:09:07;100825.09;;;22.77;68.28
53316;BME280;39204;53.896;11.432;2023-05-10T12:10:38;100828.00;;;22.80;67.15
53316;BME280;39204;53.896;11.432;2023-05-10T12:12:08;100826.53;;;23.00;67.16
53316;BME280;39204;53.896;11.432;2023-05-10T12:13:39;100820.75;;;23.31;65.61
53316;BME280;39204;53.896;11.432;2023-05-10T12:15:20;100819.88;;;23.48;65.40
53316;BME280;39204;53.896;11.432;2023-05-10T12:16:50;100820.72;;;23.02;66.54
53316;BME280;39204;53.896;11.432;2023-05-10T12:18:23;100833.03;;;23.25;66.22
53316;BME280;39204;53.896;11.432;2023-05-10T12:19:59;100830.72;;;23.36;64.98
53316;BME280;39204;53.896;11.432;2023-05-10T12:21:43;100837.38;;;23.56;65.40
53316;BME280;39204;53.896;11.432;2023-05-10T12:23:14;100842.75;;;23.05;65.54
53316;BME280;39204;53.896;11.432;2023-05-10T12:24:45;100834.03;;;23.12;66.71
53316;BME280;39204;53.896;11.432;2023-05-10T12:26:15;100843.25;;;22.99;67.25
53316;BME280;39204;53.896;11.432;2023-05-10T12:27:57;100853.63;;;22.50;65.99
53316;BME280;39204;53.896;11.432;2023-05-10T12:29:30;100847.03;;;22.59;67.04
53316;BME280;39204;53.896;11.432;2023-05-10T12:31:02;100847.19;;;22.45;66.16
53316;BME280;39204;53.896;11.432;2023-05-10T12:32:41;100850.66;;;22.89;65.10
53316;BME280;39204;53.896;11.432;2023-05-10T12:34:31;100856.19;;;22.46;66.08
53316;BME280;39204;53.896;11.432;2023-05-10T12:36:02;100848.44;;;22.65;65.66
53316;BME280;39204;53.896;11.432;2023-05-10T12:37:32;100857.47;;;22.57;64.47
53316;BME280;39204;53.896;11.432;2023-05-10T12:39:05;100862.63;;;22.41;66.79
53316;BME280;39204;53.896;11.432;2023-05-10T12:40:36;100866.16;;;22.16;67.40
53316;BME280;39204;53.896;11.432;2023-05-10T12:42:06;100860.03;;;22.02;68.12
53316;BME280;39204;53.896;11.432;2023-05-10T12:43:37;100862.97;;;22.14;67.26
53316;BME280;39204;53.896;11.432;2023-05-10T12:45:08;100871.97;;;22.49;67.48
53316;BME280;39204;53.896;11.432;2023-05-10T12:46:38;100856.97;;;22.81;66.67
53316;BME280;39204;53.896;11.432;2023-05-10T12:48:08;100862.75;;;22.88;67.10
53316;BME280;39204;53.896;11.432;2023-05-10T12:49:39;100870.16;;;22.62;65.26
53316;BME280;39204;53.896;11.432;2023-05-10T12:51:09;100866.19;;;22.33;66.22
53316;BME280;39204;53.896;11.432;2023-05-10T12:52:41;100865.69;;;22.49;66.46
53316;BME280;39204;53.896;11.432;2023-05-10T12:54:12;100871.13;;;22.57;67.54
53316;BME280;39204;53.896;11.432;2023-05-10T12:55:43;100873.41;;;22.29;67.42
53316;BME280;39204;53.896;11.432;2023-05-10T12:57:13;100869.88;;;22.37;67.53
53316;BME280;39204;53.896;11.432;2023-05-10T12:58:43;100872.94;;;22.27;68.73
53316;BME280;39204;53.896;11.432;2023-05-10T13:00:18;100871.50;;;22.30;68.88
53316;BME280;39204;53.896;11.432;2023-05-10T13:01:48;100872.53;;;21.94;68.98
53316;BME280;39204;53.896;11.432;2023-05-10T13:03:19;100870.09;;;21.66;68.74
53316;BME280;39204;53.896;11.432;2023-05-10T13:04:49;100872.00;;;21.66;69.25
53316;BME280;39204;53.896;11.432;2023-05-10T13:06:20;100870.88;;;21.27;69.48
53316;BME280;39204;53.896;11.432;2023-05-10T13:07:50;100875.84;;;21.65;72.18
53316;BME280;39204;53.896;11.432;2023-05-10T13:09:20;100872.13;;;21.52;72.54
53316;BME280;39204;53.896;11.432;2023-05-10T13:10:51;100878.72;;;21.60;71.64
53316;BME280;39204;53.896;11.432;2023-05-10T13:12:21;100875.69;;;21.61;71.81